sensor_id;sensor_type;location;lat;lon;timestamp;pressure;altitude;pressure_sealevel;temperature;humidity
8294;BME280;4185;41.506;24.938;2023-06-22T00:01:16;94006.53;;;17.76;82.86
8294;BME280;4185;41.506;24.938;2023-06-22T00:03:42;93996.88;;;17.70;83.48
8294;BME280;4185;41.506;24.938;2023-06-22T00:06:09;93998.22;;;17.63;84.38
8294;BME280;4185;41.506;24.938;2023-06-22T00:08:36;93989.28;;;17.57;83.98
8294;BME280;4185;41.506;24.938;2023-06-22T00:11:02;93990.91;;;17.47;84.39
8294;BME280;4185;41.506;24.938;2023-06-22T00:13:30;93991.47;;;17.40;84.59
8294;BME280;4185;41.506;24.938;2023-06-22T00:15:57;93997.84;;;17.30;84.52
8294;BME280;4185;41.506;24.938;2023-06-22T00:18:24;93996.34;;;17.29;84.79
8294;BME280;4185;41.506;24.938;2023-06-22T00:20:54;94004.81;;;17.31;84.67
8294;BME280;4185;41.506;24.938;2023-06-22T00:23:23;94008.81;;;17.30;85.01
8294;BME280;4185;41.506;24.938;2023-06-22T00:25:50;94000.41;;;17.22;85.79
8294;BME280;4185;41.506;24.938;2023-06-22T00:28:17;94008.22;;;17.18;85.32
8294;BME280;4185;41.506;24.938;2023-06-22T00:30:45;94003.91;;;17.23;85.02
8294;BME280;4185;41.506;24.938;2023-06-22T00:33:13;94009.88;;;17.27;84.74
8294;BME280;4185;41.506;24.938;2023-06-22T00:35:41;94013.78;;;17.31;84.48
8294;BME280;4185;41.506;24.938;2023-06-22T00:38:08;94009.78;;;17.32;84.37
8294;BME280;4185;41.506;24.938;2023-06-22T00:40:35;94012.38;;;17.25;84.60
8294;BME280;4185;41.506;24.938;2023-06-22T00:43:02;94007.97;;;17.16;84.63
8294;BME280;4185;41.506;24.938;2023-06-22T00:45:29;94003.81;;;17.10;84.61
8294;BME280;4185;41.506;24.938;2023-06-22T00:47:58;94007.56;;;17.06;85.39
8294;BME280;4185;41.506;24.938;2023-06-22T00:50:27;94011.84;;;17.02;85.73
8294;BME280;4185;41.506;24.938;2023-06-22T00:53:00;94012.38;;;17.00;86.08
8294;BME280;4185;41.506;24.938;2023-06-22T00:55:29;94015.69;;;16.93;85.76
8294;BME280;4185;41.506;24.938;2023-06-22T00:57:56;94014.25;;;16.87;86.01
8294;BME280;4185;41.506;24.938;2023-06-22T01:00:23;94017.78;;;16.82;86.25
8294;BME280;4185;41.506;24.938;2023-06-22T01:02:51;94016.38;;;16.75;87.33
8294;BME280;4185;41.506;24.938;2023-06-22T01:05:21;94014.13;;;16.74;86.48
8294;BME280;4185;41.506;24.938;2023-06-22T01:07:58;94024.69;;;16.64;86.52
8294;BME280;4185;41.506;24.938;2023-06-22T01:10:33;94033.66;;;16.65;87.10
8294;BME280;4185;41.506;24.938;2023-06-22T01:13:07;94019.34;;;16.77;86.47
8294;BME280;4185;41.506;24.938;2023-06-22T01:15:40;94018.31;;;16.80;86.22
8294;BME280;4185;41.506;24.938;2023-06-22T01:18:13;94018.06;;;16.78;87.14
8294;BME280;4185;41.506;24.938;2023-06-22T01:20:43;94015.44;;;16.67;85.99
8294;BME280;4185;41.506;24.938;2023-06-22T01:23:20;94012.31;;;16.52;87.01
8294;BME280;4185;41.506;24.938;2023-06-22T01:25:59;94002.69;;;16.40;86.98
8294;BME280;4185;41.506;24.938;2023-06-22T01:28:43;94006.66;;;16.39;87.95
8294;BME280;4185;41.506;24.938;2023-06-22T01:31:13;94012.16;;;16.39;88.30
8294;BME280;4185;41.506;24.938;2023-06-22T01:33:43;94008.72;;;16.33;87.98
8294;BME280;4185;41.506;24.938;2023-06-22T01:36:11;94010.19;;;16.34;87.82
8294;BME280;4185;41.506;24.938;2023-06-22T01:38:38;94004.94;;;16.36;87.63
8294;BME280;4185;41.506;24.938;2023-06-22T01:41:05;94011.19;;;16.37;87.62
8294;BME280;4185;41.506;24.938;2023-06-22T01:43:32;94010.91;;;16.40;87.16
8294;BME280;4185;41.506;24.938;2023-06-22T01:46:01;94009.63;;;16.41;87.27
8294;BME280;4185;41.506;24.938;2023-06-22T01:48:29;94010.16;;;16.40;87.32
8294;BME280;4185;41.506;24.938;2023-06-22T01:50:57;94003.91;;;16.39;87.88
8294;BME280;4185;41.506;24.938;2023-06-22T01:53:24;94007.13;;;16.43;87.68
8294;BME280;4185;41.506;24.938;2023-06-22T01:55:50;94010.56;;;16.55;87.30
8294;BME280;4185;41.506;24.938;2023-06-22T01:58:20;94015.13;;;16.47;87.87
8294;BME280;4185;41.506;24.938;2023-06-22T02:00:56;94013.41;;;16.38;87.29
8294;BME280;4185;41.506;24.938;2023-06-22T02:03:30;94020.41;;;16.34;87.82
8294;BME280;4185;41.506;24.938;2023-06-22T02:06:06;94024.91;;;16.31;87.25
8294;BME280;4185;41.506;24.938;2023-06-22T02:08:39;94025.47;;;16.24;87.62
8294;BME280;4185;41.506;24.938;2023-06-22T02:11:07;94022.97;;;16.26;88.08
8294;BME280;4185;41.506;24.938;2023-06-22T02:13:36;94021.97;;;16.24;87.85
8294;BME280;4185;41.506;24.938;2023-06-22T02:16:03;94028.75;;;16.17;87.71
8294;BME280;4185;41.506;24.938;2023-06-22T02:18:31;94023.81;;;16.10;87.90
8294;BME280;4185;41.506;24.938;2023-06-22T02:21:01;94027.13;;;16.03;87.99
8294;BME280;4185;41.506;24.938;2023-06-22T02:23:27;94037.59;;;15.99;88.40
8294;BME280;4185;41.506;24.938;2023-06-22T02:25:54;94039.13;;;15.95;88.68
8294;BME280;4185;41.506;24.938;2023-06-22T02:28:21;94037.63;;;15.88;88.77
8294;BME280;4185;41.506;24.938;2023-06-22T02:30:47;94040.38;;;15.88;88.63
8294;BME280;4185;41.506;24.938;2023-06-22T02:33:14;94043.91;;;15.83;88.86
8294;BME280;4185;41.506;24.938;2023-06-22T02:35:42;94050.38;;;15.80;89.00
8294;BME280;4185;41.506;24.938;2023-06-22T02:38:11;94040.69;;;15.79;88.74
8294;BME280;4185;41.506;24.938;2023-06-22T02:40:38;94044.47;;;15.76;88.94
8294;BME280;4185;41.506;24.938;2023-06-22T02:43:04;94052.44;;;15.74;89.31
8294;BME280;4185;41.506;24.938;2023-06-22T02:45:31;94052.16;;;15.77;89.06
8294;BME280;4185;41.506;24.938;2023-06-22T02:47:58;94049.94;;;15.76;89.03
8294;BME280;4185;41.506;24.938;2023-06-22T02:50:25;94052.88;;;15.78;89.12
8294;BME280;4185;41.506;24.938;2023-06-22T02:52:53;94047.19;;;15.76;88.72
8294;BME280;4185;41.506;24.938;2023-06-22T02:55:19;94051.19;;;15.69;88.60
8294;BME280;4185;41.506;24.938;2023-06-22T02:57:46;94057.94;;;15.63;88.96
8294;BME280;4185;41.506;24.938;2023-06-22T03:00:13;94058.94;;;15.60;89.96
8294;BME280;4185;41.506;24.938;2023-06-22T03:02:43;94060.22;;;15.59;89.37
8294;BME280;4185;41.506;24.938;2023-06-22T03:05:10;94065.44;;;15.57;89.43
8294;BME280;4185;41.506;24.938;2023-06-22T03:07:39;94064.19;;;15.58;88.70
8294;BME280;4185;41.506;24.938;2023-06-22T03:10:09;94063.94;;;15.56;89.33
8294;BME280;4185;41.506;24.938;2023-06-22T03:12:37;94060.16;;;15.64;88.75
8294;BME280;4185;41.506;24.938;2023-06-22T03:15:05;94053.19;;;15.69;89.31
8294;BME280;4185;41.506;24.938;2023-06-22T03:17:33;94049.69;;;15.68;88.70
8294;BME280;4185;41.506;24.938;2023-06-22T03:20:00;94051.44;;;15.71;89.36
8294;BME280;4185;41.506;24.938;2023-06-22T03:22:26;94052.66;;;15.76;89.15
8294;BME280;4185;41.506;24.938;2023-06-22T03:24:53;94057.91;;;15.74;88.97
8294;BME280;4185;41.506;24.938;2023-06-22T03:27:21;94058.69;;;15.69;89.03
8294;BME280;4185;41.506;24.938;2023-06-22T03:29:48;94053.44;;;15.71;88.77
8294;BME280;4185;41.506;24.938;2023-06-22T03:32:15;94066.38;;;15.76;89.17
8294;BME280;4185;41.506;24.938;2023-06-22T03:34:41;94070.50;;;15.88;88.41
8294;BME280;4185;41.506;24.938;2023-06-22T03:37:12;94076.22;;;15.96;88.43
8294;BME280;4185;41.506;24.938;2023-06-22T03:39:40;94070.50;;;15.94;87.89
8294;BME280;4185;41.506;24.938;2023-06-22T03:42:07;94078.22;;;15.95;87.66
8294;BME280;4185;41.506;24.938;2023-06-22T03:44:35;94074.75;;;15.95;87.73
8294;BME280;4185;41.506;24.938;2023-06-22T03:47:03;94062.78;;;15.92;87.90
8294;BME280;4185;41.506;24.938;2023-06-22T03:49:32;94062.78;;;15.92;87.60
8294;BME280;4185;41.506;24.938;2023-06-22T03:51:59;94066.81;;;15.85;88.13
8294;BME280;4185;41.506;24.938;2023-06-22T03:54:26;94065.28;;;15.90;88.33
8294;BME280;4185;41.506;24.938;2023-06-22T03:56:53;94066.78;;;15.91;88.37
8294;BME280;4185;41.506;24.938;2023-06-22T03:59:20;94067.97;;;16.01;88.77
8294;BME280;4185;41.506;24.938;2023-06-22T04:01:48;94065.16;;;16.12;88.11
8294;BME280;4185;41.506;24.938;2023-06-22T04:04:16;94061.84;;;16.25;87.77
8294;BME280;4185;41.506;24.938;2023-06-22T04:06:43;94064.78;;;16.32;87.22
8294;BME280;4185;41.506;24.938;2023-06-22T04:09:09;94062.00;;;16.38;86.91
8294;BME280;4185;41.506;24.938;2023-06-22T04:11:36;94060.47;;;16.42;86.83
8294;BME280;4185;41.506;24.938;2023-06-22T04:14:03;94057.72;;;16.42;86.85
8294;BME280;4185;41.506;24.938;2023-06-22T04:16:30;94059.22;;;16.43;87.70
8294;BME280;4185;41.506;24.938;2023-06-22T04:18:58;94053.75;;;16.49;87.58
8294;BME280;4185;41.506;24.938;2023-06-22T04:21:24;94064.13;;;16.56;88.05
8294;BME280;4185;41.506;24.938;2023-06-22T04:23:51;94061.59;;;16.63;87.24
8294;BME280;4185;41.506;24.938;2023-06-22T04:26:18;94063.97;;;16.78;87.02
8294;BME280;4185;41.506;24.938;2023-06-22T04:28:46;94062.84;;;16.92;87.26
8294;BME280;4185;41.506;24.938;2023-06-22T04:31:17;94061.13;;;16.89;87.41
8294;BME280;4185;41.506;24.938;2023-06-22T04:33:44;94065.34;;;16.90;88.04
8294;BME280;4185;41.506;24.938;2023-06-22T04:36:12;94066.59;;;16.94;87.84
8294;BME280;4185;41.506;24.938;2023-06-22T04:38:40;94071.28;;;16.99;87.91
8294;BME280;4185;41.506;24.938;2023-06-22T04:41:07;94056.97;;;17.06;87.93
8294;BME280;4185;41.506;24.938;2023-06-22T04:43:39;94063.13;;;17.18;88.37
8294;BME280;4185;41.506;24.938;2023-06-22T04:46:06;94065.97;;;17.31;88.27
8294;BME280;4185;41.506;24.938;2023-06-22T04:48:33;94069.34;;;17.43;87.72
8294;BME280;4185;41.506;24.938;2023-06-22T04:50:59;94074.75;;;17.54;87.45
8294;BME280;4185;41.506;24.938;2023-06-22T04:53:30;94073.94;;;17.59;87.82
8294;BME280;4185;41.506;24.938;2023-06-22T04:55:57;94072.66;;;17.60;87.76
8294;BME280;4185;41.506;24.938;2023-06-22T04:58:24;94073.34;;;17.66;87.48
8294;BME280;4185;41.506;24.938;2023-06-22T05:00:52;94078.72;;;17.77;86.89
8294;BME280;4185;41.506;24.938;2023-06-22T05:03:24;94065.50;;;17.94;86.12
8294;BME280;4185;41.506;24.938;2023-06-22T05:05:52;94071.31;;;18.09;85.88
8294;BME280;4185;41.506;24.938;2023-06-22T05:08:19;94067.88;;;18.21;85.83
8294;BME280;4185;41.506;24.938;2023-06-22T05:10:47;94071.31;;;18.27;85.95
8294;BME280;4185;41.506;24.938;2023-06-22T05:13:14;94066.97;;;18.32;86.31
8294;BME280;4185;41.506;24.938;2023-06-22T05:15:41;94065.59;;;18.44;85.39
8294;BME280;4185;41.506;24.938;2023-06-22T05:18:07;94065.44;;;18.55;86.44
8294;BME280;4185;41.506;24.938;2023-06-22T05:20:34;94058.88;;;18.58;86.57
8294;BME280;4185;41.506;24.938;2023-06-22T05:23:01;94060.72;;;18.69;86.46
8294;BME280;4185;41.506;24.938;2023-06-22T05:25:28;94056.81;;;18.77;86.69
8294;BME280;4185;41.506;24.938;2023-06-22T05:27:59;94054.63;;;18.89;85.66
8294;BME280;4185;41.506;24.938;2023-06-22T05:30:27;94063.44;;;19.00;85.10
8294;BME280;4185;41.506;24.938;2023-06-22T05:32:53;94052.44;;;19.13;86.06
8294;BME280;4185;41.506;24.938;2023-06-22T05:35:20;94047.47;;;19.25;85.86
8294;BME280;4185;41.506;24.938;2023-06-22T05:37:47;94046.88;;;19.32;86.45
8294;BME280;4185;41.506;24.938;2023-06-22T05:40:14;94049.31;;;19.35;86.60
8294;BME280;4185;41.506;24.938;2023-06-22T05:42:41;94038.44;;;19.43;87.43
8294;BME280;4185;41.506;24.938;2023-06-22T05:45:09;94039.16;;;19.43;88.34
8294;BME280;4185;41.506;24.938;2023-06-22T05:47:36;94042.41;;;19.55;86.68
8294;BME280;4185;41.506;24.938;2023-06-22T05:50:04;94035.25;;;19.65;86.81
8294;BME280;4185;41.506;24.938;2023-06-22T05:52:33;94030.03;;;19.75;86.12
8294;BME280;4185;41.506;24.938;2023-06-22T05:55:02;94029.25;;;19.87;86.01
8294;BME280;4185;41.506;24.938;2023-06-22T05:57:29;94028.59;;;19.94;86.55
8294;BME280;4185;41.506;24.938;2023-06-22T05:59:56;94019.91;;;20.03;84.89
8294;BME280;4185;41.506;24.938;2023-06-22T06:02:24;94031.41;;;20.15;86.42
8294;BME280;4185;41.506;24.938;2023-06-22T06:04:51;94038.75;;;20.25;85.32
8294;BME280;4185;41.506;24.938;2023-06-22T06:07:18;94030.03;;;20.34;85.46
8294;BME280;4185;41.506;24.938;2023-06-22T06:09:45;94019.03;;;20.42;84.32
8294;BME280;4185;41.506;24.938;2023-06-22T06:12:11;94023.78;;;20.54;83.27
8294;BME280;4185;41.506;24.938;2023-06-22T06:14:38;94024.59;;;20.63;83.57
8294;BME280;4185;41.506;24.938;2023-06-22T06:17:05;94023.38;;;20.71;83.14
8294;BME280;4185;41.506;24.938;2023-06-22T06:19:34;94029.91;;;20.81;81.75
8294;BME280;4185;41.506;24.938;2023-06-22T06:22:01;94015.44;;;20.88;81.44
8294;BME280;4185;41.506;24.938;2023-06-22T06:24:28;94003.72;;;20.95;80.21
8294;BME280;4185;41.506;24.938;2023-06-22T06:26:54;94010.47;;;21.07;79.69
8294;BME280;4185;41.506;24.938;2023-06-22T06:29:22;94008.69;;;21.17;80.45
8294;BME280;4185;41.506;24.938;2023-06-22T06:31:49;94003.94;;;21.25;76.82
8294;BME280;4185;41.506;24.938;2023-06-22T06:34:15;93992.59;;;21.36;75.92
8294;BME280;4185;41.506;24.938;2023-06-22T06:36:44;93983.81;;;21.45;75.82
8294;BME280;4185;41.506;24.938;2023-06-22T06:39:10;93975.03;;;21.54;74.99
8294;BME280;4185;41.506;24.938;2023-06-22T06:41:37;93978.75;;;21.64;74.44
8294;BME280;4185;41.506;24.938;2023-06-22T06:44:04;93986.50;;;21.73;71.64
8294;BME280;4185;41.506;24.938;2023-06-22T06:46:31;93980.31;;;21.81;70.36
8294;BME280;4185;41.506;24.938;2023-06-22T06:48:57;93985.53;;;21.92;70.74
8294;BME280;4185;41.506;24.938;2023-06-22T06:51:24;93992.94;;;22.04;70.61
8294;BME280;4185;41.506;24.938;2023-06-22T06:53:52;93983.38;;;22.13;70.41
8294;BME280;4185;41.506;24.938;2023-06-22T06:56:19;93987.09;;;22.23;71.18
8294;BME280;4185;41.506;24.938;2023-06-22T06:58:46;93980.13;;;22.37;70.34
8294;BME280;4185;41.506;24.938;2023-06-22T07:01:13;93978.28;;;22.47;70.14
8294;BME280;4185;41.506;24.938;2023-06-22T07:03:40;93971.16;;;22.59;68.69
8294;BME280;4185;41.506;24.938;2023-06-22T07:06:08;93976.50;;;22.72;68.65
8294;BME280;4185;41.506;24.938;2023-06-22T07:08:34;93969.13;;;22.82;67.49
8294;BME280;4185;41.506;24.938;2023-06-22T07:11:03;93971.53;;;22.93;66.54
8294;BME280;4185;41.506;24.938;2023-06-22T07:13:30;93972.44;;;23.03;66.55
8294;BME280;4185;41.506;24.938;2023-06-22T07:15:57;93967.81;;;23.13;68.09
8294;BME280;4185;41.506;24.938;2023-06-22T07:18:24;93974.47;;;23.25;67.34
8294;BME280;4185;41.506;24.938;2023-06-22T07:20:51;93970.56;;;23.36;67.31
8294;BME280;4185;41.506;24.938;2023-06-22T07:23:18;93980.53;;;23.46;67.42
8294;BME280;4185;41.506;24.938;2023-06-22T07:25:45;93978.84;;;23.58;65.34
8294;BME280;4185;41.506;24.938;2023-06-22T07:28:13;93980.47;;;23.69;64.52
8294;BME280;4185;41.506;24.938;2023-06-22T07:30:40;93979.16;;;23.77;65.15
8294;BME280;4185;41.506;24.938;2023-06-22T07:33:07;93984.09;;;23.86;66.21
8294;BME280;4185;41.506;24.938;2023-06-22T07:35:34;93983.72;;;23.97;64.70
8294;BME280;4185;41.506;24.938;2023-06-22T07:38:00;93987.38;;;24.07;63.98
8294;BME280;4185;41.506;24.938;2023-06-22T07:40:27;93991.03;;;24.18;63.02
8294;BME280;4185;41.506;24.938;2023-06-22T07:42:54;93980.63;;;24.26;60.41
8294;BME280;4185;41.506;24.938;2023-06-22T07:45:22;93984.28;;;24.36;58.38
8294;BME280;4185;41.506;24.938;2023-06-22T07:47:49;93989.41;;;24.47;58.03
8294;BME280;4185;41.506;24.938;2023-06-22T07:50:16;93972.28;;;24.58;57.66
8294;BME280;4185;41.506;24.938;2023-06-22T07:52:43;93985.56;;;24.67;58.11
8294;BME280;4185;41.506;24.938;2023-06-22T07:55:10;93974.78;;;24.78;58.20
8294;BME280;4185;41.506;24.938;2023-06-22T07:57:37;93974.72;;;24.86;55.56
8294;BME280;4185;41.506;24.938;2023-06-22T08:00:05;93979.66;;;24.95;55.48
8294;BME280;4185;41.506;24.938;2023-06-22T08:02:39;93953.38;;;25.13;53.09
8294;BME280;4185;41.506;24.938;2023-06-22T08:05:07;93978.59;;;25.32;55.03
8294;BME280;4185;41.506;24.938;2023-06-22T08:07:33;93973.16;;;25.42;52.31
8294;BME280;4185;41.506;24.938;2023-06-22T08:10:00;93976.75;;;25.52;50.43
8294;BME280;4185;41.506;24.938;2023-06-22T08:12:27;93974.06;;;25.61;49.42
8294;BME280;4185;41.506;24.938;2023-06-22T08:14:54;93973.06;;;25.66;47.60
8294;BME280;4185;41.506;24.938;2023-06-22T08:17:22;93972.09;;;25.71;48.38
8294;BME280;4185;41.506;24.938;2023-06-22T08:19:50;93967.09;;;25.70;48.17
8294;BME280;4185;41.506;24.938;2023-06-22T08:22:17;93967.03;;;25.77;48.14
8294;BME280;4185;41.506;24.938;2023-06-22T08:24:44;93970.22;;;25.91;48.05
8294;BME280;4185;41.506;24.938;2023-06-22T08:27:11;93968.56;;;26.05;47.81
8294;BME280;4185;41.506;24.938;2023-06-22T08:29:38;93961.59;;;26.13;47.75
8294;BME280;4185;41.506;24.938;2023-06-22T08:32:08;93971.09;;;26.10;47.28
8294;BME280;4185;41.506;24.938;2023-06-22T08:34:36;93973.88;;;25.93;47.36
8294;BME280;4185;41.506;24.938;2023-06-22T08:37:09;93968.00;;;25.89;46.58
8294;BME280;4185;41.506;24.938;2023-06-22T08:39:35;93962.88;;;26.03;47.90
8294;BME280;4185;41.506;24.938;2023-06-22T08:42:03;93961.09;;;26.24;48.32
8294;BME280;4185;41.506;24.938;2023-06-22T08:44:30;93967.28;;;26.32;48.39
8294;BME280;4185;41.506;24.938;2023-06-22T08:46:57;93964.56;;;26.42;47.34
8294;BME280;4185;41.506;24.938;2023-06-22T08:49:23;93967.25;;;26.50;47.83
8294;BME280;4185;41.506;24.938;2023-06-22T08:51:50;93959.66;;;26.60;47.40
8294;BME280;4185;41.506;24.938;2023-06-22T08:54:20;93952.56;;;26.76;46.79
8294;BME280;4185;41.506;24.938;2023-06-22T08:56:47;93956.44;;;26.90;45.87
8294;BME280;4185;41.506;24.938;2023-06-22T08:59:14;93963.19;;;26.87;46.49
8294;BME280;4185;41.506;24.938;2023-06-22T09:01:41;93952.00;;;26.77;46.51
8294;BME280;4185;41.506;24.938;2023-06-22T09:04:14;93959.50;;;26.58;45.60
8294;BME280;4185;41.506;24.938;2023-06-22T09:06:40;93961.84;;;26.52;46.06
8294;BME280;4185;41.506;24.938;2023-06-22T09:09:10;93965.63;;;26.47;45.78
8294;BME280;4185;41.506;24.938;2023-06-22T09:11:38;93960.47;;;26.43;46.30
8294;BME280;4185;41.506;24.938;2023-06-22T09:14:05;93962.19;;;26.38;46.93
8294;BME280;4185;41.506;24.938;2023-06-22T09:16:32;93969.09;;;26.37;47.32
8294;BME280;4185;41.506;24.938;2023-06-22T09:18:59;93972.88;;;26.32;47.09
8294;BME280;4185;41.506;24.938;2023-06-22T09:21:26;93969.16;;;26.30;47.67
8294;BME280;4185;41.506;24.938;2023-06-22T09:23:53;93972.53;;;26.28;47.49
8294;BME280;4185;41.506;24.938;2023-06-22T09:26:20;93969.25;;;26.39;46.51
8294;BME280;4185;41.506;24.938;2023-06-22T09:28:49;93963.50;;;26.37;47.03
8294;BME280;4185;41.506;24.938;2023-06-22T09:31:16;93963.13;;;26.51;48.15
8294;BME280;4185;41.506;24.938;2023-06-22T09:33:47;93969.41;;;26.68;48.34
8294;BME280;4185;41.506;24.938;2023-06-22T09:36:13;93972.78;;;26.67;48.88
8294;BME280;4185;41.506;24.938;2023-06-22T09:38:42;93969.44;;;26.51;46.72
8294;BME280;4185;41.506;24.938;2023-06-22T09:41:09;93970.88;;;26.42;47.57
8294;BME280;4185;41.506;24.938;2023-06-22T09:43:36;93965.41;;;26.35;47.24
8294;BME280;4185;41.506;24.938;2023-06-22T09:46:04;93963.47;;;26.28;47.03
8294;BME280;4185;41.506;24.938;2023-06-22T09:48:32;93958.88;;;26.23;47.30
8294;BME280;4185;41.506;24.938;2023-06-22T09:50:59;93972.31;;;26.17;47.53
8294;BME280;4185;41.506;24.938;2023-06-22T09:53:25;93973.47;;;26.14;49.21
8294;BME280;4185;41.506;24.938;2023-06-22T09:55:52;93968.66;;;26.14;50.20
8294;BME280;4185;41.506;24.938;2023-06-22T09:58:19;93970.13;;;26.15;50.61
8294;BME280;4185;41.506;24.938;2023-06-22T10:00:46;93970.31;;;26.27;52.91
8294;BME280;4185;41.506;24.938;2023-06-22T10:03:14;93970.13;;;26.42;52.63
8294;BME280;4185;41.506;24.938;2023-06-22T10:05:41;93962.88;;;26.83;51.21
8294;BME280;4185;41.506;24.938;2023-06-22T10:08:08;93968.19;;;26.98;49.97
8294;BME280;4185;41.506;24.938;2023-06-22T10:10:35;93972.81;;;27.12;48.02
8294;BME280;4185;41.506;24.938;2023-06-22T10:13:07;93965.16;;;27.13;48.40
8294;BME280;4185;41.506;24.938;2023-06-22T10:15:35;93946.53;;;27.06;47.25
8294;BME280;4185;41.506;24.938;2023-06-22T10:18:02;93965.84;;;27.30;47.31
8294;BME280;4185;41.506;24.938;2023-06-22T10:20:30;93973.06;;;27.43;47.39
8294;BME280;4185;41.506;24.938;2023-06-22T10:22:57;93964.81;;;27.45;46.18
8294;BME280;4185;41.506;24.938;2023-06-22T10:25:24;93967.50;;;27.43;46.25
8294;BME280;4185;41.506;24.938;2023-06-22T10:27:51;93966.16;;;27.44;45.88
8294;BME280;4185;41.506;24.938;2023-06-22T10:30:18;93957.81;;;27.63;45.96
8294;BME280;4185;41.506;24.938;2023-06-22T10:32:45;93953.25;;;27.87;45.71
8294;BME280;4185;41.506;24.938;2023-06-22T10:35:11;93945.47;;;28.04;44.73
8294;BME280;4185;41.506;24.938;2023-06-22T10:37:43;93946.34;;;27.78;43.39
8294;BME280;4185;41.506;24.938;2023-06-22T10:40:11;93941.97;;;27.75;43.77
8294;BME280;4185;41.506;24.938;2023-06-22T10:42:38;93933.56;;;27.46;43.41
8294;BME280;4185;41.506;24.938;2023-06-22T10:45:05;93937.06;;;27.47;44.03
8294;BME280;4185;41.506;24.938;2023-06-22T10:47:33;93939.59;;;27.52;43.94
8294;BME280;4185;41.506;24.938;2023-06-22T10:50:01;93935.91;;;27.40;44.36
8294;BME280;4185;41.506;24.938;2023-06-22T10:52:28;93932.97;;;27.57;44.51
8294;BME280;4185;41.506;24.938;2023-06-22T10:54:56;93922.84;;;27.62;43.83
8294;BME280;4185;41.506;24.938;2023-06-22T10:57:23;93926.09;;;27.87;44.51
8294;BME280;4185;41.506;24.938;2023-06-22T10:59:49;93927.94;;;28.23;44.39
8294;BME280;4185;41.506;24.938;2023-06-22T11:02:16;93916.28;;;28.45;43.01
8294;BME280;4185;41.506;24.938;2023-06-22T11:04:43;93916.84;;;28.63;43.24
8294;BME280;4185;41.506;24.938;2023-06-22T11:07:09;93920.03;;;28.79;42.42
8294;BME280;4185;41.506;24.938;2023-06-22T11:09:36;93920.72;;;28.89;41.88
8294;BME280;4185;41.506;24.938;2023-06-22T11:12:07;93925.66;;;29.00;42.72
8294;BME280;4185;41.506;24.938;2023-06-22T11:14:33;93914.44;;;29.09;41.20
8294;BME280;4185;41.506;24.938;2023-06-22T11:17:00;93922.72;;;28.98;40.49
8294;BME280;4185;41.506;24.938;2023-06-22T11:19:27;93913.88;;;29.11;41.99
8294;BME280;4185;41.506;24.938;2023-06-22T11:21:53;93921.22;;;29.06;41.54
8294;BME280;4185;41.506;24.938;2023-06-22T11:24:20;93922.84;;;28.69;40.94
8294;BME280;4185;41.506;24.938;2023-06-22T11:26:47;93915.22;;;28.69;41.30
8294;BME280;4185;41.506;24.938;2023-06-22T11:29:15;93903.88;;;28.98;41.03
8294;BME280;4185;41.506;24.938;2023-06-22T11:31:42;93908.66;;;29.17;41.79
8294;BME280;4185;41.506;24.938;2023-06-22T11:34:09;93907.53;;;29.01;41.69
8294;BME280;4185;41.506;24.938;2023-06-22T11:36:36;93912.66;;;28.83;42.26
8294;BME280;4185;41.506;24.938;2023-06-22T11:39:03;93918.25;;;28.73;41.53
8294;BME280;4185;41.506;24.938;2023-06-22T11:41:30;93919.81;;;28.55;40.79
8294;BME280;4185;41.506;24.938;2023-06-22T11:43:57;93923.81;;;28.43;41.38
8294;BME280;4185;41.506;24.938;2023-06-22T11:46:25;93920.72;;;28.39;41.48
8294;BME280;4185;41.506;24.938;2023-06-22T11:48:52;93915.72;;;28.37;41.88
8294;BME280;4185;41.506;24.938;2023-06-22T11:51:18;93915.88;;;28.39;41.28
8294;BME280;4185;41.506;24.938;2023-06-22T11:53:45;93914.69;;;28.42;40.95
8294;BME280;4185;41.506;24.938;2023-06-22T11:56:13;93921.88;;;28.45;41.24
8294;BME280;4185;41.506;24.938;2023-06-22T11:58:40;93919.81;;;28.55;40.46
8294;BME280;4185;41.506;24.938;2023-06-22T12:01:07;93915.72;;;28.56;40.74
8294;BME280;4185;41.506;24.938;2023-06-22T12:03:35;93917.03;;;28.55;40.44
8294;BME280;4185;41.506;24.938;2023-06-22T12:06:02;93915.84;;;28.49;41.36
8294;BME280;4185;41.506;24.938;2023-06-22T12:08:28;93923.38;;;28.46;41.66
8294;BME280;4185;41.506;24.938;2023-06-22T12:10:55;93918.41;;;28.75;39.92
8294;BME280;4185;41.506;24.938;2023-06-22T12:13:22;93910.72;;;28.86;40.17
8294;BME280;4185;41.506;24.938;2023-06-22T12:15:48;93915.91;;;28.80;38.98
8294;BME280;4185;41.506;24.938;2023-06-22T12:18:17;93909.75;;;28.71;40.08
8294;BME280;4185;41.506;24.938;2023-06-22T12:20:47;93913.50;;;28.86;40.31
8294;BME280;4185;41.506;24.938;2023-06-22T12:23:14;93912.81;;;29.16;39.41
8294;BME280;4185;41.506;24.938;2023-06-22T12:25:41;93899.09;;;29.41;39.64
8294;BME280;4185;41.506;24.938;2023-06-22T12:28:08;93901.88;;;29.20;40.49
8294;BME280;4185;41.506;24.938;2023-06-22T12:30:35;93903.06;;;29.38;40.34
8294;BME280;4185;41.506;24.938;2023-06-22T12:33:01;93895.34;;;29.69;39.78
8294;BME280;4185;41.506;24.938;2023-06-22T12:35:28;93885.84;;;29.95;39.19
8294;BME280;4185;41.506;24.938;2023-06-22T12:37:56;93884.03;;;30.00;37.22
8294;BME280;4185;41.506;24.938;2023-06-22T12:40:24;93890.88;;;30.08;37.79
8294;BME280;4185;41.506;24.938;2023-06-22T12:42:50;93881.41;;;30.13;37.18
8294;BME280;4185;41.506;24.938;2023-06-22T12:45:17;93882.38;;;30.18;37.54
8294;BME280;4185;41.506;24.938;2023-06-22T12:47:46;93870.63;;;30.31;35.61
8294;BME280;4185;41.506;24.938;2023-06-22T12:50:15;93877.22;;;30.47;35.39
8294;BME280;4185;41.506;24.938;2023-06-22T12:52:42;93881.75;;;30.63;35.57
8294;BME280;4185;41.506;24.938;2023-06-22T12:55:10;93874.41;;;30.58;34.64
8294;BME280;4185;41.506;24.938;2023-06-22T12:57:37;93875.22;;;30.26;34.96
8294;BME280;4185;41.506;24.938;2023-06-22T13:00:04;93874.03;;;29.97;35.97
8294;BME280;4185;41.506;24.938;2023-06-22T13:02:33;93891.22;;;29.70;36.49
8294;BME280;4185;41.506;24.938;2023-06-22T13:05:00;93886.69;;;29.44;36.82
8294;BME280;4185;41.506;24.938;2023-06-22T13:07:26;93883.69;;;29.30;37.55
8294;BME280;4185;41.506;24.938;2023-06-22T13:09:53;93888.03;;;29.22;37.64
8294;BME280;4185;41.506;24.938;2023-06-22T13:12:21;93879.22;;;29.16;37.80